createdAt,value
2023-03-20T00:02:19.360Z,5.75
2023-03-20T00:04:46.581Z,6.07
2023-03-20T00:07:13.396Z,6.53
2023-03-20T00:09:40.576Z,5.97
2023-03-20T00:12:08.520Z,6.18
2023-03-20T00:17:18.553Z,6.22
2023-03-20T00:19:45.840Z,6.53
2023-03-20T00:22:12.825Z,5.57
2023-03-20T00:24:39.683Z,7.35
2023-03-20T00:27:08.085Z,6.38
2023-03-20T00:29:35.996Z,6.13
2023-03-20T00:32:03.838Z,5.43
2023-03-20T00:34:32.869Z,7.10
2023-03-20T00:37:00.979Z,5.13
2023-03-20T00:39:30.954Z,5.30
2023-03-20T00:42:02.133Z,4.88
2023-03-20T00:44:41.766Z,5.07
2023-03-20T00:49:51.621Z,8.55
2023-03-20T00:52:20.481Z,5.70
2023-03-20T00:54:47.423Z,6.85
2023-03-20T00:57:45.378Z,8.38
2023-03-20T01:00:25.810Z,5.80
2023-03-20T01:02:58.580Z,5.43
2023-03-20T01:05:27.753Z,5.60
2023-03-20T01:07:57.322Z,5.60
2023-03-20T01:10:31.322Z,5.43
2023-03-20T01:13:01.960Z,5.45
2023-03-20T01:15:34.946Z,7.18
2023-03-20T01:18:03.204Z,6.00
2023-03-20T01:20:33.308Z,5.35
2023-03-20T01:23:01.880Z,4.70
2023-03-20T01:25:28.672Z,5.93
2023-03-20T01:27:56.147Z,8.32
2023-03-20T01:30:26.681Z,5.68
2023-03-20T01:32:56.570Z,5.70
2023-03-20T01:35:27.854Z,5.97
2023-03-20T01:37:58.412Z,4.75
2023-03-20T01:40:30.224Z,5.18
2023-03-20T01:43:00.055Z,4.85
2023-03-20T01:45:32.820Z,4.85
2023-03-20T01:48:02.115Z,5.43
2023-03-20T01:50:34.404Z,6.07
2023-03-20T01:53:16.760Z,5.68
2023-03-20T01:55:56.420Z,4.82
2023-03-20T01:58:39.044Z,6.10
2023-03-20T02:01:09.108Z,6.47
2023-03-20T02:03:39.019Z,4.90
2023-03-20T02:06:16.975Z,8.25
2023-03-20T02:09:08.751Z,6.10
2023-03-20T02:11:41.942Z,4.88
2023-03-20T02:14:10.219Z,5.00
2023-03-20T02:16:47.196Z,4.85
2023-03-20T02:19:27.402Z,4.70
2023-03-20T02:21:55.901Z,4.82
2023-03-20T02:27:19.349Z,4.80
2023-03-20T02:30:00.568Z,6.57
2023-03-20T02:32:58.563Z,6.43
2023-03-20T02:36:12.960Z,6.00
2023-03-20T02:39:03.864Z,5.70
2023-03-20T02:41:46.809Z,5.15
2023-03-20T02:44:23.495Z,6.38
2023-03-20T02:47:03.255Z,5.80
2023-03-20T02:49:52.827Z,5.55
2023-03-20T02:52:37.089Z,7.25
2023-03-20T02:55:13.215Z,6.30
2023-03-20T02:58:05.217Z,7.60
2023-03-20T03:01:02.293Z,6.75
2023-03-20T03:03:36.620Z,6.80
2023-03-20T03:06:13.932Z,6.45
2023-03-20T03:08:47.381Z,7.68
2023-03-20T03:11:15.412Z,6.10
2023-03-20T03:13:46.146Z,6.78
2023-03-20T03:16:17.168Z,10.13
2023-03-20T03:18:47.007Z,6.22
2023-03-20T03:21:17.211Z,8.18
2023-03-20T03:23:49.227Z,7.57
2023-03-20T03:26:25.673Z,9.45
2023-03-20T03:29:03.059Z,9.63
2023-03-20T03:31:32.446Z,9.45
2023-03-20T03:34:00.978Z,9.50
2023-03-20T03:37:06.163Z,9.30
2023-03-20T03:39:37.237Z,8.32
2023-03-20T03:42:13.453Z,8.50
2023-03-20T03:44:57.866Z,10.75
2023-03-20T03:47:35.371Z,8.68
2023-03-20T03:50:07.231Z,9.68
2023-03-20T03:52:34.878Z,12.35
2023-03-20T03:55:19.952Z,10.40
2023-03-20T03:58:15.280Z,10.85
2023-03-20T04:00:43.826Z,9.20
2023-03-20T04:03:13.948Z,9.85
2023-03-20T04:05:44.350Z,10.40
2023-03-20T04:08:12.326Z,9.95
2023-03-20T04:10:42.110Z,11.13
2023-03-20T04:13:11.380Z,10.27
2023-03-20T04:15:40.227Z,10.50
2023-03-20T04:18:17.314Z,11.57
2023-03-20T04:20:46.794Z,10.15
2023-03-20T04:23:14.419Z,12.27
2023-03-20T04:25:41.798Z,10.35
2023-03-20T04:28:08.908Z,10.27
2023-03-20T04:31:00.159Z,11.82
2023-03-20T04:33:45.478Z,13.68
2023-03-20T04:36:30.787Z,10.05
2023-03-20T04:39:01.718Z,12.43
2023-03-20T04:41:30.878Z,15.45
2023-03-20T04:43:58.694Z,15.10
2023-03-20T04:46:28.189Z,13.07
2023-03-20T04:48:55.448Z,13.10
2023-03-20T04:51:23.622Z,10.70
2023-03-20T04:53:53.932Z,13.80
2023-03-20T04:56:21.778Z,10.77
2023-03-20T04:58:51.828Z,10.40
2023-03-20T05:01:22.200Z,9.45
2023-03-20T05:03:49.991Z,9.18
2023-03-20T05:06:16.759Z,9.38
2023-03-20T05:08:44.606Z,11.20
2023-03-20T05:11:11.639Z,10.48
2023-03-20T05:14:14.161Z,13.88
2023-03-20T05:16:46.014Z,9.88
2023-03-20T05:19:26.142Z,8.23
2023-03-20T05:22:11.310Z,8.13
2023-03-20T05:24:56.714Z,6.72
2023-03-20T05:27:36.954Z,7.95
2023-03-20T05:30:27.884Z,7.82
2023-03-20T05:33:04.884Z,7.25
2023-03-20T05:35:53.303Z,6.55
2023-03-20T05:38:43.933Z,6.63
2023-03-20T05:41:47.213Z,8.40
2023-03-20T05:44:48.561Z,8.35
2023-03-20T05:47:35.076Z,6.95
2023-03-20T05:50:21.797Z,6.68
2023-03-20T05:53:07.856Z,6.65
2023-03-20T05:55:50.973Z,6.03
2023-03-20T05:58:46.253Z,7.85
2023-03-20T06:01:22.429Z,8.07
2023-03-20T06:04:04.621Z,8.88
2023-03-20T06:06:51.155Z,6.93
2023-03-20T06:09:19.732Z,7.15
2023-03-20T06:11:47.404Z,5.65
2023-03-20T06:14:17.292Z,7.15
2023-03-20T06:16:49.337Z,6.00
2023-03-20T06:19:17.276Z,5.07
2023-03-20T06:21:47.106Z,5.45
2023-03-20T06:24:18.560Z,8.73
2023-03-20T06:26:47.953Z,8.75
2023-03-20T06:29:15.269Z,9.10
2023-03-20T06:31:43.709Z,5.63
2023-03-20T06:34:17.701Z,5.05
2023-03-20T06:36:48.798Z,4.63
2023-03-20T06:39:21.355Z,6.90
2023-03-20T06:44:17.173Z,4.10
2023-03-20T06:47:03.100Z,4.10
2023-03-20T06:49:31.233Z,4.72
2023-03-20T06:51:59.486Z,4.15
2023-03-20T06:54:28.091Z,3.30
2023-03-20T06:56:56.125Z,3.80
2023-03-20T06:59:22.879Z,4.20
2023-03-20T07:01:54.896Z,6.60
2023-03-20T07:04:22.565Z,3.40
2023-03-20T07:06:53.343Z,3.63
2023-03-20T07:09:22.314Z,3.65
2023-03-20T07:11:49.248Z,4.10
2023-03-20T07:14:16.713Z,4.20
2023-03-20T07:17:04.243Z,5.30
2023-03-20T07:19:33.451Z,5.38
2023-03-20T07:22:04.540Z,5.60
2023-03-20T07:24:37.014Z,6.70
2023-03-20T07:27:04.340Z,5.65
2023-03-20T07:29:33.321Z,6.15
2023-03-20T07:32:01.395Z,13.25
2023-03-20T07:34:33.818Z,6.22
2023-03-20T07:37:01.572Z,4.25
2023-03-20T07:39:31.246Z,4.95
2023-03-20T07:42:18.940Z,4.68
2023-03-20T07:44:56.112Z,4.68
2023-03-20T07:47:23.924Z,5.13
2023-03-20T07:49:51.158Z,5.57
2023-03-20T07:52:18.761Z,5.55
2023-03-20T07:54:46.433Z,6.07
2023-03-20T07:57:14.619Z,4.45
2023-03-20T07:59:41.944Z,5.47
2023-03-20T08:02:16.431Z,4.60
2023-03-20T08:04:45.138Z,5.03
2023-03-20T08:07:13.568Z,4.50
2023-03-20T08:09:41.511Z,4.32
2023-03-20T08:12:08.762Z,6.07
2023-03-20T08:14:35.787Z,5.85
2023-03-20T08:17:14.577Z,5.18
2023-03-20T08:22:11.082Z,4.05
2023-03-20T08:24:38.708Z,5.50
2023-03-20T08:27:05.951Z,3.70
2023-03-20T08:29:34.190Z,3.97
2023-03-20T08:32:01.620Z,3.60
2023-03-20T08:34:29.219Z,3.72
2023-03-20T08:36:57.376Z,3.00
2023-03-20T08:39:25.446Z,3.90
2023-03-20T08:41:53.158Z,4.97
2023-03-20T08:44:20.238Z,4.18
2023-03-20T08:46:47.896Z,3.72
2023-03-20T08:49:16.338Z,3.08
2023-03-20T08:54:11.527Z,4.03
2023-03-20T08:56:38.482Z,3.97
2023-03-20T08:59:05.660Z,5.30
2023-03-20T09:01:48.390Z,3.88
2023-03-20T09:04:17.777Z,3.80
2023-03-20T09:06:45.252Z,3.97
2023-03-20T09:09:16.189Z,4.40
2023-03-20T09:11:43.244Z,4.60
2023-03-20T09:14:10.796Z,3.90
2023-03-20T09:16:38.500Z,3.38
2023-03-20T09:19:05.824Z,4.35
2023-03-20T09:21:33.379Z,2.53
2023-03-20T09:24:00.774Z,3.88
2023-03-20T09:26:28.639Z,3.63
2023-03-20T09:28:55.505Z,1.83
2023-03-20T09:31:23.445Z,3.40
2023-03-20T09:33:50.569Z,1.63
2023-03-20T09:36:17.678Z,2.58
2023-03-20T09:38:45.325Z,3.05
2023-03-20T09:41:18.489Z,1.50
2023-03-20T09:44:00.468Z,2.35
2023-03-20T09:46:27.828Z,2.17
2023-03-20T09:48:55.507Z,1.80
2023-03-20T09:51:46.815Z,3.15
2023-03-20T09:54:33.878Z,2.75
2023-03-20T09:57:05.295Z,2.63
2023-03-20T09:59:34.702Z,2.10
2023-03-20T10:02:07.983Z,3.70
2023-03-20T10:04:35.545Z,3.42
2023-03-20T10:07:04.813Z,2.88
2023-03-20T10:09:32.107Z,2.58
2023-03-20T10:12:37.292Z,3.05
2023-03-20T10:15:16.261Z,3.42
2023-03-20T10:18:07.327Z,4.55
2023-03-20T10:20:51.036Z,2.65
2023-03-20T10:23:27.545Z,6.45
2023-03-20T10:25:57.036Z,3.15
2023-03-20T10:28:23.792Z,2.70
2023-03-20T10:31:13.041Z,6.47
2023-03-20T10:34:03.392Z,4.03
2023-03-20T10:36:48.735Z,2.08
2023-03-20T10:39:31.888Z,4.57
2023-03-20T10:42:02.517Z,2.95
2023-03-20T10:44:36.829Z,2.35
2023-03-20T10:49:43.259Z,1.33
2023-03-20T10:52:17.844Z,1.42
2023-03-20T10:54:48.871Z,1.80
2023-03-20T10:57:24.889Z,1.65
2023-03-20T10:59:53.034Z,2.10
2023-03-20T11:02:21.859Z,1.95
2023-03-20T11:04:48.732Z,1.83
2023-03-20T11:07:23.968Z,1.73
2023-03-20T11:10:12.628Z,3.35
2023-03-20T11:12:46.688Z,3.08
2023-03-20T11:15:22.653Z,2.03
2023-03-20T11:18:05.056Z,4.40
2023-03-20T11:20:35.103Z,2.70
2023-03-20T11:23:05.537Z,2.40
2023-03-20T11:25:40.236Z,1.33
2023-03-20T11:28:32.717Z,2.05
2023-03-20T11:31:08.249Z,1.80
2023-03-20T11:33:38.207Z,2.22
2023-03-20T11:36:27.783Z,3.83
2023-03-20T11:39:10.896Z,2.78
2023-03-20T11:41:52.537Z,2.22
2023-03-20T11:44:36.709Z,2.00
2023-03-20T11:47:05.864Z,1.83
2023-03-20T11:49:34.109Z,1.90
2023-03-20T11:52:11.452Z,2.28
2023-03-20T11:54:40.307Z,2.05
2023-03-20T11:57:07.404Z,2.10
2023-03-20T11:59:35.978Z,1.55
2023-03-20T12:02:19.995Z,4.95
2023-03-20T12:04:47.610Z,1.52
2023-03-20T12:07:26.751Z,2.75
2023-03-20T12:09:56.438Z,3.47
2023-03-20T12:12:36.128Z,2.03
2023-03-20T12:15:13.755Z,2.28
2023-03-20T12:17:51.266Z,1.77
2023-03-20T12:20:18.056Z,4.32
2023-03-20T12:23:06.756Z,2.85
2023-03-20T12:25:58.203Z,4.47
2023-03-20T12:28:31.622Z,2.45
2023-03-20T12:31:05.831Z,2.33
2023-03-20T12:36:19.642Z,2.88
2023-03-20T12:38:47.338Z,1.73
2023-03-20T12:41:15.248Z,2.13
2023-03-20T12:44:18.007Z,1.90
2023-03-20T12:47:11.461Z,2.22
2023-03-20T12:49:48.112Z,1.75
2023-03-20T12:52:46.029Z,2.60
2023-03-20T12:55:59.698Z,2.10
2023-03-20T12:58:32.778Z,3.10
2023-03-20T13:01:05.028Z,2.75
2023-03-20T13:03:43.774Z,2.58
2023-03-20T13:06:48.595Z,2.15
2023-03-20T13:09:25.913Z,2.83
2023-03-20T13:12:13.706Z,2.38
2023-03-20T13:14:49.313Z,2.25
2023-03-20T13:17:27.452Z,1.50
2023-03-20T13:19:58.118Z,1.98
2023-03-20T13:23:16.648Z,2.28
2023-03-20T13:26:20.289Z,0.85
2023-03-20T13:28:56.353Z,1.77
2023-03-20T13:31:50.517Z,1.77
2023-03-20T13:34:36.493Z,1.70
2023-03-20T13:40:00.808Z,1.73
2023-03-20T13:42:32.788Z,2.35
2023-03-20T13:45:07.229Z,1.92
2023-03-20T13:47:36.788Z,1.55
2023-03-20T13:50:12.559Z,1.67
2023-03-20T13:52:44.213Z,2.42
2023-03-20T13:55:17.320Z,1.70
2023-03-20T13:58:08.733Z,0.85
2023-03-20T14:00:54.302Z,3.33
2023-03-20T14:03:25.648Z,1.73
2023-03-20T14:05:52.707Z,2.08
2023-03-20T14:08:33.313Z,1.55
2023-03-20T14:11:13.978Z,1.25
2023-03-20T14:13:46.156Z,1.42
2023-03-20T14:16:16.117Z,1.05
2023-03-20T14:18:44.698Z,1.58
2023-03-20T14:21:13.792Z,1.40
2023-03-20T14:23:47.222Z,1.13
2023-03-20T14:26:22.207Z,1.05
2023-03-20T14:28:57.337Z,1.42
2023-03-20T14:31:26.041Z,1.30
2023-03-20T14:34:21.381Z,1.38
2023-03-20T14:37:05.609Z,0.95
2023-03-20T14:39:41.713Z,1.63
2023-03-20T14:42:18.147Z,1.55
2023-03-20T14:45:19.463Z,0.47
2023-03-20T14:47:52.109Z,1.35
2023-03-20T14:50:25.613Z,1.73
2023-03-20T14:53:15.685Z,2.00
2023-03-20T14:55:58.046Z,1.27
2023-03-20T14:58:46.226Z,0.98
2023-03-20T15:01:22.702Z,1.80
2023-03-20T15:04:06.902Z,1.45
2023-03-20T15:06:35.053Z,1.00
2023-03-20T15:09:08.589Z,0.80
2023-03-20T15:11:35.620Z,1.88
2023-03-20T15:14:04.646Z,1.25
2023-03-20T15:16:34.253Z,1.38
2023-03-20T15:19:03.855Z,0.80
2023-03-20T15:21:38.771Z,0.57
2023-03-20T15:24:05.703Z,1.10
2023-03-20T15:26:34.709Z,1.35
2023-03-20T15:29:07.530Z,2.05
2023-03-20T15:31:37.338Z,1.27
2023-03-20T15:34:08.202Z,2.08
2023-03-20T15:36:39.958Z,2.63
2023-03-20T15:39:24.872Z,1.80
2023-03-20T15:42:02.073Z,1.00
2023-03-20T15:44:36.578Z,0.70
2023-03-20T15:47:10.380Z,0.70
2023-03-20T15:49:41.253Z,0.70
2023-03-20T15:52:31.464Z,0.73
2023-03-20T15:55:06.622Z,1.98
2023-03-20T15:57:36.206Z,3.50
2023-03-20T16:00:08.976Z,1.25
2023-03-20T16:02:37.005Z,2.17
2023-03-20T16:05:04.138Z,1.92
2023-03-20T16:07:32.887Z,0.73
2023-03-20T16:10:00.944Z,1.05
2023-03-20T16:12:28.382Z,1.40
2023-03-20T16:14:56.112Z,1.42
2023-03-20T16:17:24.593Z,0.93
2023-03-20T16:19:51.862Z,0.98
2023-03-20T16:22:28.385Z,1.15
2023-03-20T16:24:58.189Z,1.40
2023-03-20T16:27:35.790Z,0.95
2023-03-20T16:30:18.160Z,1.33
2023-03-20T16:32:47.563Z,0.88
2023-03-20T16:35:21.972Z,1.50
2023-03-20T16:38:01.460Z,1.60
2023-03-20T16:40:28.534Z,1.95
2023-03-20T16:42:57.317Z,1.83
2023-03-20T16:45:31.891Z,1.20
2023-03-20T16:48:10.640Z,1.13
2023-03-20T16:50:42.607Z,1.75
2023-03-20T16:53:16.988Z,5.43
2023-03-20T16:58:27.781Z,1.88
2023-03-20T17:01:10.669Z,1.77
2023-03-20T17:03:48.206Z,3.97
2023-03-20T17:06:21.980Z,2.10
2023-03-20T17:08:51.123Z,3.00
2023-03-20T17:11:38.478Z,3.20
2023-03-20T17:14:05.877Z,2.63
2023-03-20T17:16:34.013Z,3.55
2023-03-20T17:19:03.676Z,3.90
2023-03-20T17:21:30.724Z,2.38
2023-03-20T17:23:57.939Z,3.35
2023-03-20T17:26:25.178Z,2.95
2023-03-20T17:28:51.970Z,2.88
2023-03-20T17:31:19.423Z,4.82
2023-03-20T17:33:46.498Z,3.72
2023-03-20T17:36:25.096Z,2.70
2023-03-20T17:38:52.233Z,2.40
2023-03-20T17:41:20.056Z,2.92
2023-03-20T17:43:47.418Z,2.78
2023-03-20T17:46:26.712Z,3.22
2023-03-20T17:48:59.511Z,2.80
2023-03-20T17:51:27.124Z,1.88
2023-03-20T17:53:56.476Z,2.30
2023-03-20T17:56:29.409Z,2.78
2023-03-20T17:58:57.448Z,2.17
2023-03-20T18:01:24.282Z,4.28
2023-03-20T18:03:51.966Z,2.45
2023-03-20T18:06:30.850Z,2.65
2023-03-20T18:08:59.969Z,2.28
2023-03-20T18:11:27.641Z,2.60
2023-03-20T18:13:54.386Z,3.30
2023-03-20T18:16:26.711Z,3.50
2023-03-20T18:18:54.044Z,2.67
2023-03-20T18:21:20.920Z,3.03
2023-03-20T18:23:51.144Z,2.67
2023-03-20T18:26:24.508Z,2.80
2023-03-20T18:28:52.792Z,2.53
2023-03-20T18:31:20.726Z,3.25
2023-03-20T18:33:53.116Z,3.28
2023-03-20T18:36:22.582Z,3.05
2023-03-20T18:38:49.950Z,3.17
2023-03-20T18:41:16.709Z,3.60
2023-03-20T18:43:43.810Z,1.80
2023-03-20T18:46:13.865Z,2.20
2023-03-20T18:48:41.749Z,2.00
2023-03-20T18:51:08.646Z,1.52
2023-03-20T18:53:35.374Z,2.50
2023-03-20T18:56:03.226Z,5.03
2023-03-20T18:58:31.168Z,3.13
2023-03-20T19:01:00.007Z,2.80
2023-03-20T19:03:28.989Z,2.22
2023-03-20T19:05:58.023Z,3.38
2023-03-20T19:08:25.950Z,3.22
2023-03-20T19:10:53.366Z,2.95
2023-03-20T19:13:21.528Z,3.90
2023-03-20T19:15:48.476Z,2.10
2023-03-20T19:18:18.606Z,3.10
2023-03-20T19:20:50.750Z,2.35
2023-03-20T19:23:21.460Z,2.03
2023-03-20T19:25:53.521Z,1.67
2023-03-20T19:28:37.687Z,2.78
2023-03-20T19:31:07.226Z,1.35
2023-03-20T19:36:04.645Z,2.17
2023-03-20T19:38:32.348Z,2.22
2023-03-20T19:41:00.293Z,1.75
2023-03-20T19:43:28.944Z,3.35
2023-03-20T19:45:59.042Z,1.38
2023-03-20T19:48:51.301Z,1.20
2023-03-20T19:51:29.649Z,2.05
2023-03-20T19:53:59.429Z,1.40
2023-03-20T19:56:27.691Z,1.40
2023-03-20T19:58:57.106Z,1.15
2023-03-20T20:01:27.628Z,1.77
2023-03-20T20:03:59.193Z,1.17
2023-03-20T20:06:31.060Z,1.00
2023-03-20T20:09:01.674Z,1.05
2023-03-20T20:11:29.386Z,2.70
2023-03-20T20:16:43.781Z,1.83
2023-03-20T20:19:11.383Z,2.25
2023-03-20T20:22:17.067Z,1.33
2023-03-20T20:24:25.672Z,2.95
2023-03-20T20:27:14.756Z,1.70
2023-03-20T20:29:42.637Z,1.88
2023-03-20T20:32:12.541Z,1.25
2023-03-20T20:40:18.663Z,2.22
2023-03-20T20:42:54.195Z,1.92
2023-03-20T20:45:22.661Z,1.70
2023-03-20T20:47:50.761Z,2.38
2023-03-20T20:50:22.755Z,3.38
2023-03-20T20:52:50.509Z,1.40
2023-03-20T20:55:23.640Z,2.58
2023-03-20T20:57:53.885Z,1.60
2023-03-20T21:00:34.049Z,1.83
2023-03-20T21:03:07.542Z,3.55
2023-03-20T21:05:35.894Z,1.67
2023-03-20T21:08:02.908Z,2.95
2023-03-20T21:10:29.921Z,2.35
2023-03-20T21:12:59.992Z,1.85
2023-03-20T21:15:27.924Z,2.20
2023-03-20T21:18:00.984Z,2.42
2023-03-20T21:20:32.035Z,2.78
2023-03-20T21:22:59.315Z,3.20
2023-03-20T21:25:39.293Z,3.95
2023-03-20T21:28:11.365Z,6.63
2023-03-20T21:30:59.911Z,1.77
2023-03-20T21:33:36.065Z,1.83
2023-03-20T21:36:05.169Z,7.82
2023-03-20T21:41:22.056Z,3.65
2023-03-20T21:43:50.176Z,4.45
2023-03-20T21:46:55.308Z,3.53
2023-03-20T21:49:56.465Z,2.30
2023-03-20T22:01:21.732Z,1.83
2023-03-20T22:03:28.954Z,2.13
2023-03-20T22:07:05.610Z,1.20
2023-03-20T22:09:52.207Z,1.55
2023-03-20T22:15:18.470Z,1.48
2023-03-20T22:31:55.309Z,2.72
2023-03-20T22:40:30.554Z,1.25
2023-03-20T22:45:16.786Z,2.00
2023-03-20T22:50:12.698Z,1.88
2023-03-20T22:52:49.134Z,1.80
2023-03-20T22:55:17.669Z,2.13
2023-03-20T22:57:59.928Z,2.42
2023-03-20T23:00:32.449Z,1.48
2023-03-20T23:03:12.868Z,1.73
2023-03-20T23:05:42.836Z,1.63
2023-03-20T23:08:11.064Z,2.90
2023-03-20T23:10:42.725Z,4.97
2023-03-20T23:13:09.857Z,2.10
2023-03-20T23:15:36.590Z,1.55
2023-03-20T23:18:04.148Z,1.92
2023-03-20T23:20:30.835Z,1.60
2023-03-20T23:22:57.922Z,4.68
2023-03-20T23:25:38.260Z,2.42
2023-03-20T23:28:06.953Z,2.38
2023-03-20T23:30:44.236Z,1.75
2023-03-20T23:33:13.620Z,1.27
2023-03-20T23:35:40.380Z,2.13
2023-03-20T23:38:07.138Z,1.63
2023-03-20T23:40:33.957Z,1.90
2023-03-20T23:43:01.039Z,1.42
2023-03-20T23:45:28.542Z,2.55
2023-03-20T23:47:56.056Z,1.80
2023-03-20T23:50:36.526Z,1.83
2023-03-20T23:55:57.849Z,1.40
2023-03-20T23:58:28.100Z,2.20
